Lockport, NY (14094)

5:25 AM EDT on August 26, 2016 (GMT -0400)
Park Lane Circle Apts. | | Change Station

Elev 617 ft 43.17 °N, 78.66 °W | Updated 9 minutes ago

Clear
Clear
69.3 °F
Feels Like 69.3 °F
N
0.0
Wind Variable Wind from SE

Today
High -- | Low -- °F
--% Chance of Precip.
Yesterday
High -- | Low -- °F
Precip. -- in
Pressure 29.99 in
Visibility 6.0 miles
Clouds Clear
Dew Point 68 °F
Humidity 96%
Rainfall 0.00 in
Snow Depth Not available.
6:33 AM 7:59 PM
Last Quarter, 36% visible
METAR KIAG 260853Z AUTO 23003KT 6SM BR CLR 21/19 A3001 RMK AO2 SLP156 T02110194 51019
Pressure 29.99 in
Visibility 6.0 miles
Clouds Clear
Dew Point 68 °F
Humidity 96%
Rainfall 0.00 in
Snow Depth Not available.
6:33 AM 7:59 PM
Last Quarter, 36% visible
METAR KIAG 260853Z AUTO 23003KT 6SM BR CLR 21/19 A3001 RMK AO2 SLP156 T02110194 51019

10-Day Weather Forecast

Almanac

Astronomy

Aug. 26, 2016 Rise Set
Actual Time
Civil Twilight
Nautical Twilight
Astronomical Twilight
Moon
Length of Visible Light
Length of Day
Tomorrow will be .
, % of the Moon is Illuminated

Today's Extremes

State Highs State Lows

Community

WunderPhotos

Upload Photos

1,935,069 photos uploaded!

WunderBlog® & News

Nearby

Air Quality

  Air Quality AQ Index Pollutant
Not available.

Snow Depth

Station Depth Elevation

Earthquake Activity

City Distance Mag. Time & Date
Minimum magnitude displayed is 2.5.

Coastal Water Temperatures

Place Temperature

Stations

Nearby Weather Stations

Station Location Temp. Windchill Dew Point Humidity Wind Precip. Elev Updated Type
                   

Watches & Warnings

There are currently no watches in effect.